Time;durP1;ratioP1;P1;durP2;ratioP2;P2;SDS_P1;SDS_P2;PMS_P1;PMS_P2;Temp;Humidity;BMP_temperature;BMP_pressure;BME280_temperature;BME280_humidity;BME280_pressure;Samples;Min_cycle;Max_cycle;Signal;HPM_P1;HPM_P2
2021/06/26 00:05:02;;;;;;;1999.90;999.90;;;;;;;21.48;58.67;101393.50;15262046;29;20159;-56
2021/06/26 00:12:34;;;;;;;1999.90;999.90;;;;;;;21.31;59.51;101392.09;15242903;29;21109;-59
2021/06/26 00:20:09;;;;;;;1999.90;999.90;;;;;;;21.37;60.19;101399.06;15259830;29;20056;-59
2021/06/26 00:27:42;;;;;;;1999.90;999.90;;;;;;;21.32;60.03;101396.56;15258659;29;20143;-57
2021/06/26 00:35:16;;;;;;;1999.90;999.90;;;;;;;21.20;60.45;101382.63;15240851;29;20314;-59
2021/06/26 00:42:49;;;;;;;1999.90;999.90;;;;;;;21.07;60.51;101393.47;15258524;29;20040;-56
2021/06/26 00:50:24;;;;;;;1999.90;999.90;;;;;;;20.98;60.94;101398.63;15240530;29;20055;-58
2021/06/26 00:57:58;;;;;;;1999.90;999.90;;;;;;;20.71;61.36;101403.56;15258186;29;20060;-55
2021/06/26 01:05:32;;;;;;;1999.90;999.90;;;;;;;20.63;61.22;101413.16;15224430;29;20052;-59
2021/06/26 01:13:06;;;;;;;1999.90;999.90;;;;;;;20.38;61.77;101410.78;15256134;29;20083;-57
2021/06/26 01:20:39;;;;;;;1999.90;999.90;;;;;;;20.19;62.33;101402.41;15239226;29;20066;-58
2021/06/26 01:28:13;;;;;;;1999.90;999.90;;;;;;;19.92;62.84;101409.28;15254352;29;20088;-54
2021/06/26 01:35:47;;;;;;;1999.90;999.90;;;;;;;19.73;63.66;101407.34;15238271;29;20071;-58
2021/06/26 01:43:21;;;;;;;1999.90;999.90;;;;;;;19.35;64.68;101409.06;15238032;29;20036;-57
2021/06/26 01:50:54;;;;;;;1999.90;999.90;;;;;;;19.28;65.26;101418.28;15238587;29;20474;-59
2021/06/26 01:58:28;;;;;;;1999.90;999.90;;;;;;;19.06;65.81;101406.91;15221506;29;20135;-56
2021/06/26 02:06:00;;;;;;;1999.90;999.90;;;;;;;18.83;66.42;101410.50;15253829;29;20131;-57
2021/06/26 02:13:33;;;;;;;1999.90;999.90;;;;;;;18.65;67.16;101409.28;15252488;29;20070;-57
2021/06/26 02:21:06;;;;;;;1999.90;999.90;;;;;;;18.63;67.03;101404.00;15235099;29;20143;-53
2021/06/26 02:28:40;;;;;;;1999.90;999.90;;;;;;;18.52;68.05;101416.25;15253597;29;20135;-59
2021/06/26 02:36:12;;;;;;;1999.90;999.90;;;;;;;18.45;67.63;101425.41;15234112;29;20051;-57
2021/06/26 02:43:45;;;;;;;1999.90;999.90;;;;;;;18.23;67.87;101423.25;15234449;29;20068;-59
2021/06/26 02:51:17;;;;;;;1999.90;999.90;;;;;;;18.08;68.54;101414.47;15233877;29;20131;-56
2021/06/26 02:58:51;;;;;;;1999.90;999.90;;;;;;;17.99;69.00;101419.50;15234121;29;20083;-57
2021/06/26 03:06:23;;;;;;;1999.90;999.90;;;;;;;17.88;69.38;101424.88;15233496;29;20505;-56
2021/06/26 03:13:57;;;;;;;1999.90;999.90;;;;;;;17.92;68.84;101432.59;15249820;29;20044;-58
2021/06/26 03:21:29;;;;;;;1999.90;999.90;;;;;;;17.64;69.58;101441.97;15250237;29;20066;-57
2021/06/26 03:29:03;;;;;;;1999.90;999.90;;;;;;;17.82;69.97;101448.09;15250104;29;20072;-56
2021/06/26 03:36:35;;;;;;;1999.90;999.90;;;;;;;17.80;70.20;101453.28;15249314;29;20052;-57
2021/06/26 03:44:09;;;;;;;1999.90;999.90;;;;;;;18.01;70.08;101450.19;15250406;29;20044;-58
2021/06/26 03:51:41;;;;;;;1999.90;999.90;;;;;;;18.11;70.03;101450.44;15249396;29;20100;-54
2021/06/26 03:59:14;;;;;;;1999.90;999.90;;;;;;;18.29;69.33;101469.84;15263409;29;20467;-57
2021/06/26 04:06:47;;;;;;;1999.90;999.90;;;;;;;18.45;69.37;101468.63;15248983;29;20040;-54
2021/06/26 04:14:20;;;;;;;1999.90;999.90;;;;;;;18.70;69.06;101474.03;15246903;29;20056;-58
2021/06/26 04:21:52;;;;;;;1999.90;999.90;;;;;;;18.76;69.18;101466.91;15247648;29;20478;-55
2021/06/26 04:29:26;;;;;;;1999.90;999.90;;;;;;;19.11;68.31;101469.66;15231212;29;20045;-53
2021/06/26 04:36:58;;;;;;;1999.90;999.90;;;;;;;19.41;67.88;101471.84;15247792;29;20040;-58
2021/06/26 04:44:32;;;;;;;1999.90;999.90;;;;;;;19.76;67.23;101471.72;15234031;29;20108;-58
2021/06/26 04:52:08;;;;;;;1999.90;999.90;;;;;;;20.12;66.34;101482.47;15257723;29;20107;-53
2021/06/26 04:59:42;;;;;;;;;;;;;;;20.58;65.10;101484.41;15241835;29;20048;-56
2021/06/26 05:07:14;;;;;;;1999.90;999.90;;;;;;;20.87;64.99;101489.25;15258078;29;19927;-54
2021/06/26 05:14:47;;;;;;;1999.90;999.90;;;;;;;21.25;62.75;101493.78;15272169;29;20043;-58
2021/06/26 05:22:19;;;;;;;1999.90;999.90;;;;;;;21.81;61.24;101494.81;15221839;29;20055;-56
2021/06/26 05:29:53;;;;;;;1999.90;999.90;;;;;;;22.53;57.80;101507.63;15256854;29;20395;-57
2021/06/26 05:37:25;;;;;;;1999.90;999.90;;;;;;;22.37;58.92;101507.91;15191993;29;20044;-58
2021/06/26 05:44:59;;;;;;;1999.90;999.90;;;;;;;22.21;59.16;101515.91;15239112;29;20059;-58
2021/06/26 05:52:31;;;;;;;1999.90;999.90;;;;;;;22.31;59.00;101518.03;15254984;29;20494;-57
2021/06/26 06:00:06;;;;;;;1999.90;999.90;;;;;;;22.25;59.04;101511.88;15256246;29;20052;-58
2021/06/26 06:07:46;;;;;;;1999.90;999.90;;;;;;;22.85;57.99;101505.81;15255414;29;20044;-57
2021/06/26 06:15:19;;;;;;;1999.90;999.90;;;;;;;23.04;56.88;101502.66;15251463;29;20157;-59
2021/06/26 06:22:51;;;;;;;1999.90;999.90;;;;;;;23.21;56.56;101511.66;15253968;29;20501;-58
2021/06/26 06:30:26;;;;;;;1999.90;999.90;;;;;;;23.78;54.63;101514.72;15221106;29;20055;-59
2021/06/26 06:37:59;;;;;;;1999.90;999.90;;;;;;;24.24;50.90;101516.75;15236016;29;20056;-59
2021/06/26 06:45:33;;;;;;;1999.90;999.90;;;;;;;24.87;51.00;101524.44;15252845;29;20048;-59
2021/06/26 06:53:05;;;;;;;1999.90;999.90;;;;;;;25.70;47.62;101522.88;15233993;29;20475;-60
2021/06/26 07:00:38;;;;;;;1999.90;999.90;;;;;;;25.88;45.13;101529.31;15234111;29;20513;-60
2021/06/26 07:08:10;;;;;;;1999.90;999.90;;;;;;;26.28;44.72;101526.16;15233184;29;20048;-57
2021/06/26 07:15:45;;;;;;;1999.90;999.90;;;;;;;27.01;44.14;101525.84;15234353;29;20062;-59
2021/06/26 07:23:17;;;;;;;1999.90;999.90;;;;;;;27.19;43.85;101531.34;15250848;29;20048;-58
2021/06/26 07:30:51;;;;;;;1999.90;999.90;;;;;;;27.44;39.78;101519.59;15250257;29;20096;-59
2021/06/26 07:38:23;;;;;;;1999.90;999.90;;;;;;;27.79;40.54;101506.81;15250051;29;20581;-57
2021/06/26 07:45:56;;;;;;;1999.90;999.90;;;;;;;28.05;39.67;101503.13;15249697;29;20107;-59
2021/06/26 07:53:29;;;;;;;1999.90;999.90;;;;;;;28.35;39.70;101499.34;15249947;29;20067;-60
2021/06/26 08:01:02;;;;;;;;;;;;;;;29.23;38.83;101504.59;15230417;29;20096;-60
2021/06/26 08:08:34;;;;;;;1999.90;999.90;;;;;;;29.25;35.25;101499.22;15243277;29;19962;-60
2021/06/26 08:16:08;;;;;;;1999.90;999.90;;;;;;;29.44;37.32;101496.78;15231644;29;20039;-59
2021/06/26 08:23:40;;;;;;;1999.90;999.90;;;;;;;28.67;37.17;101486.47;15226327;29;20480;-60
2021/06/26 08:31:13;;;;;;;;;;;;;;;27.81;39.46;101492.84;15240230;29;20051;-60
2021/06/26 08:38:45;;;;;;;1999.90;999.90;;;;;;;28.07;36.94;101482.59;15242137;29;20017;-60
2021/06/26 08:46:20;;;;;;;;;;;;;;;29.45;33.75;101490.56;15243288;29;20048;-58
2021/06/26 08:53:52;;;;;;;1999.90;999.90;;;;;;;29.79;31.99;101493.09;15257870;29;19923;-58
2021/06/26 09:01:25;;;;;;;1999.90;999.90;;;;;;;29.82;30.67;101486.47;15225871;29;20071;-60
2021/06/26 09:08:58;;;;;;;1999.90;999.90;;;;;;;30.83;30.25;101491.22;15240737;29;20048;-60
2021/06/26 09:16:32;;;;;;;1999.90;999.90;;;;;;;31.60;29.63;101481.53;15257330;29;20048;-58
2021/06/26 09:24:07;;;;;;;1999.90;999.90;;;;;;;30.61;31.80;101479.47;15239698;29;20108;-60
2021/06/26 09:31:50;;;;;;;1999.90;999.90;;;;;;;28.65;31.31;101477.47;15254722;29;20044;-60
2021/06/26 09:39:22;;;;;;;1999.90;999.90;;;;;;;29.65;33.38;101479.06;15256130;29;20052;-59
2021/06/26 09:46:56;;;;;;;1999.90;999.90;;;;;;;31.36;29.26;101468.69;15239573;29;20383;-58
2021/06/26 09:54:29;;;;;;;1999.90;999.90;;;;;;;32.05;29.02;101468.13;15254058;29;20040;-58
2021/06/26 10:02:03;;;;;;;1999.90;999.90;;;;;;;30.31;30.47;101472.06;15253561;29;20052;-58
2021/06/26 10:09:36;;;;;;;1999.90;999.90;;;;;;;30.98;33.41;101472.28;15251435;29;20067;-57
2021/06/26 10:17:10;;;;;;;1999.90;999.90;;;;;;;31.29;31.15;101468.91;15234617;29;20151;-60
2021/06/26 10:24:44;;;;;;;1999.90;999.90;;;;;;;29.50;33.67;101472.03;15252770;29;20178;-59
2021/06/26 10:32:19;;;;;;;1999.90;999.90;;;;;;;30.25;33.49;101479.66;15240080;29;20120;-58
2021/06/26 10:40:03;;;;;;;1999.90;999.90;;;;;;;31.77;29.12;101464.91;15368625;23;20134;-66
2021/06/26 10:47:38;;;;;;;1999.90;999.90;;;;;;;33.20;27.68;101459.84;15369443;28;20051;-66
2021/06/26 10:55:11;;;;;;;1999.90;999.90;;;;;;;30.76;29.48;101458.97;15370642;28;20050;-68
2021/06/26 11:02:47;;;;;;;1999.90;999.90;;;;;;;33.12;27.66;101450.63;15370408;28;20131;-67
2021/06/26 11:10:19;;;;;;;1999.90;999.90;;;;;;;33.36;26.76;101448.06;15369194;28;20277;-66
2021/06/26 11:17:52;;;;;;;1999.90;999.90;;;;;;;34.06;26.19;101448.50;15368505;29;20121;-66
2021/06/26 11:25:27;;;;;;;1999.90;999.90;;;;;;;30.98;27.88;101451.31;15345684;28;20071;-66
2021/06/26 11:33:01;;;;;;;1999.90;999.90;;;;;;;29.92;30.89;101455.81;15355668;29;20508;-67
2021/06/26 11:40:34;;;;;;;1999.90;999.90;;;;;;;29.04;30.71;101442.22;15355129;29;20127;-66
2021/06/26 11:48:11;;;;;;;1999.90;999.90;;;;;;;33.27;24.93;101445.09;15309341;29;20055;-67
2021/06/26 11:55:50;;;;;;;1999.90;999.90;;;;;;;33.81;23.42;101447.44;15314920;29;20082;-66
2021/06/26 12:03:23;;;;;;;1999.90;999.90;;;;;;;33.39;24.40;101440.53;15317256;29;20044;-66
2021/06/26 12:10:56;;;;;;;1999.90;999.90;;;;;;;32.35;24.05;101426.28;15318797;29;20051;-66
2021/06/26 12:18:29;;;;;;;1999.90;999.90;;;;;;;30.45;28.19;101427.69;15320164;29;20075;-66
2021/06/26 12:26:01;;;;;;;1999.90;999.90;;;;;;;31.99;26.16;101423.78;15318384;29;20056;-68
2021/06/26 12:33:35;;;;;;;1999.90;999.90;;;;;;;34.51;22.88;101420.91;15319177;29;20123;-67
2021/06/26 12:41:18;;;;;;;1999.90;999.90;;;;;;;33.54;23.74;101418.41;15319296;29;20413;-66
2021/06/26 12:48:53;;;;;;;1999.90;999.90;;;;;;;36.82;20.21;101411.41;15318146;29;20036;-66
2021/06/26 12:56:26;;;;;;;1999.90;999.90;;;;;;;34.55;20.15;101398.34;15317127;29;20047;-66
2021/06/26 13:04:00;;;;;;;1999.90;999.90;;;;;;;34.82;21.67;101397.53;15317006;29;20059;-67
2021/06/26 13:11:35;;;;;;;1999.90;999.90;;;;;;;32.54;23.90;101381.81;15315546;29;20067;-68
2021/06/26 13:19:10;;;;;;;1999.90;999.90;;;;;;;32.70;23.70;101366.34;15315387;29;20051;-65
2021/06/26 13:26:42;;;;;;;1999.90;999.90;;;;;;;33.03;25.21;101369.63;15314987;29;20181;-64
2021/06/26 13:34:16;;;;;;;1999.90;999.90;;;;;;;32.30;25.76;101360.44;15316259;29;20044;-68
2021/06/26 13:41:50;;;;;;;1999.90;999.90;;;;;;;32.69;23.13;101348.22;15314431;29;20087;-65
2021/06/26 13:49:24;;;;;;;1999.90;999.90;;;;;;;31.93;24.56;101344.88;15356890;28;20105;-67
2021/06/26 13:56:57;;;;;;;1999.90;999.90;;;;;;;31.24;25.15;101337.66;15371711;28;20413;-68
2021/06/26 14:04:30;;;;;;;1999.90;999.90;;;;;;;31.51;23.60;101333.50;15376122;28;20055;-68
2021/06/26 14:12:02;;;;;;;1999.90;999.90;;;;;;;30.32;25.32;101334.69;15375479;28;20050;-68
2021/06/26 14:19:36;;;;;;;1999.90;999.90;;;;;;;29.97;27.72;101339.38;15387211;28;20043;-64
2021/06/26 14:27:08;;;;;;;1999.90;999.90;;;;;;;29.62;27.70;101339.06;15372341;29;20051;-65
2021/06/26 14:34:42;;;;;;;1999.90;999.90;;;;;;;30.48;26.49;101326.00;15355622;28;20395;-63
2021/06/26 14:42:14;;;;;;;1999.90;999.90;;;;;;;30.32;28.05;101314.53;15355109;29;20566;-65
2021/06/26 14:49:51;;;;;;;1999.90;999.90;;;;;;;30.24;26.71;101299.56;15354952;29;20127;-64
2021/06/26 14:57:23;;;;;;;1999.90;999.90;;;;;;;28.97;29.33;101301.59;15371326;28;20043;-66
2021/06/26 15:04:56;;;;;;;1999.90;999.90;;;;;;;29.47;29.53;101300.38;15370137;28;20608;-62
2021/06/26 15:12:28;;;;;;;1999.90;999.90;;;;;;;28.75;32.22;101304.94;15372198;28;20081;-65
2021/06/26 15:20:04;;;;;;;1999.90;999.90;;;;;;;28.40;33.27;101297.94;15373107;28;20055;-64
2021/06/26 15:27:37;;;;;;;1999.90;999.90;;;;;;;28.11;34.42;101296.88;15352381;28;20047;-65
2021/06/26 15:35:11;;;;;;;1999.90;999.90;;;;;;;27.87;33.90;101293.25;15368415;28;20469;-65
2021/06/26 15:42:43;;;;;;;1999.90;999.90;;;;;;;28.35;33.02;101289.06;15369208;28;20051;-64
2021/06/26 15:50:17;;;;;;;1999.90;999.90;;;;;;;27.86;33.35;101283.84;15352225;29;20075;-64
2021/06/26 15:57:49;;;;;;;1999.90;999.90;;;;;;;28.22;34.15;101267.97;15367426;28;20068;-65
2021/06/26 16:05:23;;;;;;;1999.90;999.90;;;;;;;28.29;34.35;101268.66;15368129;28;20130;-64
2021/06/26 16:12:55;;;;;;;1999.90;999.90;;;;;;;28.60;33.04;101265.53;15368541;29;20051;-64
2021/06/26 16:20:29;;;;;;;1999.90;999.90;;;;;;;28.54;31.80;101265.22;15367649;28;20500;-65
2021/06/26 16:28:02;;;;;;;1999.90;999.90;;;;;;;28.13;31.87;101260.75;15367927;28;20048;-66
2021/06/26 16:35:36;;;;;;;1999.90;999.90;;;;;;;28.38;30.92;101250.84;15380922;23;20055;-64
2021/06/26 16:43:08;;;;;;;1999.90;999.90;;;;;;;28.17;32.14;101254.97;15382734;28;20091;-63
2021/06/26 16:50:42;;;;;;;;;;;;;;;28.29;31.34;101256.38;15388055;28;20051;-61
2021/06/26 16:58:14;;;;;;;1999.90;999.90;;;;;;;28.08;32.44;101255.53;15384788;28;19926;-66
2021/06/26 17:05:47;;;;;;;;;;;;;;;27.94;32.02;101252.97;15397234;28;20043;-62
2021/06/26 17:13:22;;;;;;;1999.90;999.90;;;;;;;27.54;34.91;101249.19;15380955;28;19929;-65
2021/06/26 17:20:55;;;;;;;1999.90;999.90;;;;;;;26.60;37.66;101240.47;15365245;28;20090;-63
2021/06/26 17:28:29;;;;;;;1999.90;999.90;;;;;;;26.59;38.99;101243.78;15380825;28;20122;-61
2021/06/26 17:36:04;;;;;;;1999.90;999.90;;;;;;;26.67;37.50;101248.13;15359183;28;20044;-60
2021/06/26 17:43:36;;;;;;;1999.90;999.90;;;;;;;26.61;36.79;101244.97;15301311;29;20138;-61
2021/06/26 17:51:10;;;;;;;1999.90;999.90;;;;;;;26.82;37.32;101248.75;15319405;29;20044;-58
2021/06/26 17:58:42;;;;;;;1999.90;999.90;;;;;;;26.59;37.57;101249.50;15340916;29;20107;-61
2021/06/26 18:06:18;;;;;;;1999.90;999.90;;;;;;;26.64;38.33;101251.88;15385718;28;20530;-64
2021/06/26 18:13:51;;;;;;;1999.90;999.90;;;;;;;26.66;37.33;101255.91;15371058;28;20503;-61
2021/06/26 18:21:25;;;;;;;1999.90;999.90;;;;;;;26.81;37.79;101256.53;15376321;28;20102;-64
2021/06/26 18:28:57;;;;;;;1999.90;999.90;;;;;;;26.68;36.95;101264.91;15348502;29;20111;-66
2021/06/26 18:36:31;;;;;;;1999.90;999.90;;;;;;;26.55;38.78;101263.84;15362695;29;20078;-64
2021/06/26 18:44:04;;;;;;;1999.90;999.90;;;;;;;26.33;39.73;101263.28;15375054;28;20074;-61
2021/06/26 18:51:37;;;;;;;1999.90;999.90;;;;;;;26.02;39.97;101270.22;15373307;29;20400;-65
2021/06/26 18:59:09;;;;;;;1999.90;999.90;;;;;;;25.81;40.31;101260.66;15374568;28;20082;-64
2021/06/26 19:06:43;;;;;;;1999.90;999.90;;;;;;;25.44;41.25;101266.31;15376789;28;20071;-64
2021/06/26 19:14:15;;;;;;;1999.90;999.90;;;;;;;25.14;42.75;101273.50;15379095;28;20160;-63
2021/06/26 19:21:48;;;;;;;1999.90;999.90;;;;;;;24.83;42.60;101281.03;15373840;29;20099;-65
2021/06/26 19:29:21;;;;;;;1999.90;999.90;;;;;;;24.49;44.23;101292.25;15373820;29;20126;-64
2021/06/26 19:36:57;;;;;;;1999.90;999.90;;;;;;;24.21;44.35;101292.31;15373643;29;20047;-64
2021/06/26 19:44:29;;;;;;;1999.90;999.90;;;;;;;23.86;44.99;101296.88;15356811;29;20121;-61
2021/06/26 19:52:04;;;;;;;1999.90;999.90;;;;;;;23.45;45.36;101303.03;15373979;29;20043;-62
2021/06/26 19:59:36;;;;;;;1999.90;999.90;;;;;;;23.35;45.70;101312.41;15388424;28;20051;-61
2021/06/26 20:07:09;;;;;;;1999.90;999.90;;;;;;;23.33;45.71;101320.50;15371717;29;20043;-62
2021/06/26 20:14:41;;;;;;;1999.90;999.90;;;;;;;23.27;45.64;101325.81;15376210;28;20055;-64
2021/06/26 20:22:15;;;;;;;1999.90;999.90;;;;;;;23.07;45.86;101337.97;15385184;28;20050;-63
2021/06/26 20:29:47;;;;;;;1999.90;999.90;;;;;;;22.81;47.13;101345.59;15382756;29;20503;-64
2021/06/26 20:37:21;;;;;;;1999.90;999.90;;;;;;;22.88;47.02;101344.84;15383488;28;20047;-63
2021/06/26 20:44:53;;;;;;;1999.90;999.90;;;;;;;22.75;47.67;101350.06;15364562;29;20051;-63
2021/06/26 20:52:27;;;;;;;1999.90;999.90;;;;;;;22.67;48.43;101359.78;15382587;28;20469;-62
2021/06/26 20:59:59;;;;;;;1999.90;999.90;;;;;;;22.48;49.17;101347.50;15380889;29;20047;-64
2021/06/26 21:07:33;;;;;;;1999.90;999.90;;;;;;;22.29;48.48;101356.34;15380497;29;20131;-63
2021/06/26 21:15:06;;;;;;;1999.90;999.90;;;;;;;22.16;49.27;101360.75;15381230;28;20085;-63
2021/06/26 21:22:41;;;;;;;1999.90;999.90;;;;;;;21.98;50.03;101365.47;15379426;29;20125;-64
2021/06/26 21:30:14;;;;;;;1999.90;999.90;;;;;;;21.71;50.38;101356.38;15378471;28;20055;-60
2021/06/26 21:37:48;;;;;;;1999.90;999.90;;;;;;;21.56;50.73;101349.72;15380309;28;20058;-63
2021/06/26 21:45:20;;;;;;;1999.90;999.90;;;;;;;21.28;51.46;101350.31;15378866;29;20055;-63
2021/06/26 21:52:54;;;;;;;1999.90;999.90;;;;;;;21.18;52.16;101356.69;15378622;29;20055;-62
2021/06/26 22:00:49;;;;;;;1999.90;999.90;;;;;;;20.98;52.68;101354.03;15378023;29;20526;-62
2021/06/26 22:08:23;;;;;;;1999.90;999.90;;;;;;;20.84;52.46;101356.72;15362010;29;20138;-61
2021/06/26 22:15:55;;;;;;;1999.90;999.90;;;;;;;20.49;54.00;101368.44;15378715;28;20047;-61
2021/06/26 22:23:29;;;;;;;1999.90;999.90;;;;;;;20.35;54.76;101379.56;15378138;29;20035;-63
2021/06/26 22:31:01;;;;;;;1999.90;999.90;;;;;;;20.16;55.72;101389.00;15378500;28;20533;-62
2021/06/26 22:38:35;;;;;;;1999.90;999.90;;;;;;;19.91;56.67;101385.81;15311146;23;20139;-74
2021/06/26 22:46:07;;;;;;;1999.90;999.90;;;;;;;19.83;56.48;101390.53;15254706;29;20127;-73
2021/06/26 22:53:41;;;;;;;1999.90;999.90;;;;;;;19.20;57.78;101402.34;15312849;23;20052;-81
2021/06/26 23:01:14;;;;;;;1999.90;999.90;;;;;;;19.51;57.70;101400.47;15243842;29;20059;-80
2021/06/26 23:08:47;;;;;;;1999.90;999.90;;;;;;;19.44;57.98;101411.66;15243980;29;20107;-79
2021/06/26 23:16:19;;;;;;;1999.90;999.90;;;;;;;19.02;59.19;101395.53;15252432;29;20063;-79
2021/06/26 23:23:53;;;;;;;1999.90;999.90;;;;;;;19.10;59.30;101404.97;15276058;29;20055;-81
2021/06/26 23:31:27;;;;;;;1999.90;999.90;;;;;;;18.90;59.47;101409.84;15259977;29;20056;-81
2021/06/26 23:39:05;;;;;;;1999.90;999.90;;;;;;;18.78;60.26;101399.50;15256800;29;20039;-76
2021/06/26 23:46:37;;;;;;;1999.90;999.90;;;;;;;18.75;60.23;101405.88;15295584;29;20059;-80
2021/06/26 23:54:11;;;;;;;1999.90;999.90;;;;;;;18.56;61.01;101412.34;15298023;29;20135;-80
